sensor_id;sensor_type;location;lat;lon;timestamp;P1;durP1;ratioP1;P2;durP2;ratioP2
47599;SDS011;33323;52.124;6.018;2023-03-02T00:02:18;62.60;;;26.80;;
47599;SDS011;33323;52.124;6.018;2023-03-02T00:04:49;65.95;;;28.00;;
47599;SDS011;33323;52.124;6.018;2023-03-02T00:07:20;71.05;;;28.42;;
47599;SDS011;33323;52.124;6.018;2023-03-02T00:09:53;68.57;;;28.02;;
47599;SDS011;33323;52.124;6.018;2023-03-02T00:12:20;73.07;;;29.15;;
47599;SDS011;33323;52.124;6.018;2023-03-02T00:14:48;69.30;;;28.77;;
47599;SDS011;33323;52.124;6.018;2023-03-02T00:17:15;63.72;;;26.48;;
47599;SDS011;33323;52.124;6.018;2023-03-02T00:19:42;71.90;;;29.30;;
47599;SDS011;33323;52.124;6.018;2023-03-02T00:22:10;64.93;;;26.58;;
47599;SDS011;33323;52.124;6.018;2023-03-02T00:24:37;70.18;;;31.05;;
47599;SDS011;33323;52.124;6.018;2023-03-02T00:27:04;65.60;;;27.63;;
47599;SDS011;33323;52.124;6.018;2023-03-02T00:29:31;58.22;;;27.45;;
47599;SDS011;33323;52.124;6.018;2023-03-02T00:31:58;57.50;;;25.80;;
47599;SDS011;33323;52.124;6.018;2023-03-02T00:34:26;60.78;;;26.48;;
47599;SDS011;33323;52.124;6.018;2023-03-02T00:36:53;59.53;;;26.15;;
47599;SDS011;33323;52.124;6.018;2023-03-02T00:39:20;58.58;;;25.00;;
47599;SDS011;33323;52.124;6.018;2023-03-02T00:41:47;62.72;;;25.77;;
47599;SDS011;33323;52.124;6.018;2023-03-02T00:44:14;70.25;;;25.67;;
47599;SDS011;33323;52.124;6.018;2023-03-02T00:46:45;65.93;;;26.00;;
47599;SDS011;33323;52.124;6.018;2023-03-02T00:49:12;69.43;;;26.52;;
47599;SDS011;33323;52.124;6.018;2023-03-02T00:51:39;67.05;;;27.42;;
47599;SDS011;33323;52.124;6.018;2023-03-02T00:54:06;74.53;;;28.00;;
47599;SDS011;33323;52.124;6.018;2023-03-02T00:56:33;59.88;;;25.63;;
47599;SDS011;33323;52.124;6.018;2023-03-02T00:59:06;66.03;;;25.60;;
47599;SDS011;33323;52.124;6.018;2023-03-02T01:02:14;63.28;;;26.65;;
47599;SDS011;33323;52.124;6.018;2023-03-02T01:04:43;66.70;;;26.63;;
47599;SDS011;33323;52.124;6.018;2023-03-02T01:07:13;67.90;;;27.67;;
47599;SDS011;33323;52.124;6.018;2023-03-02T01:09:43;55.95;;;24.65;;
47599;SDS011;33323;52.124;6.018;2023-03-02T01:12:11;61.55;;;24.75;;
47599;SDS011;33323;52.124;6.018;2023-03-02T01:14:39;66.20;;;26.00;;
47599;SDS011;33323;52.124;6.018;2023-03-02T01:17:10;63.30;;;27.35;;
47599;SDS011;33323;52.124;6.018;2023-03-02T01:19:38;60.25;;;23.95;;
47599;SDS011;33323;52.124;6.018;2023-03-02T01:22:07;64.07;;;28.48;;
47599;SDS011;33323;52.124;6.018;2023-03-02T01:24:35;64.97;;;26.90;;
47599;SDS011;33323;52.124;6.018;2023-03-02T01:27:02;71.97;;;27.65;;
47599;SDS011;33323;52.124;6.018;2023-03-02T01:29:29;65.82;;;26.40;;
47599;SDS011;33323;52.124;6.018;2023-03-02T01:31:57;58.58;;;26.58;;
47599;SDS011;33323;52.124;6.018;2023-03-02T01:34:25;69.72;;;25.05;;
47599;SDS011;33323;52.124;6.018;2023-03-02T01:36:52;58.72;;;24.52;;
47599;SDS011;33323;52.124;6.018;2023-03-02T01:39:19;61.25;;;26.30;;
47599;SDS011;33323;52.124;6.018;2023-03-02T01:41:48;60.85;;;27.02;;
47599;SDS011;33323;52.124;6.018;2023-03-02T01:44:37;62.42;;;26.48;;
47599;SDS011;33323;52.124;6.018;2023-03-02T01:47:18;66.45;;;25.98;;
47599;SDS011;33323;52.124;6.018;2023-03-02T01:50:22;61.95;;;25.92;;
47599;SDS011;33323;52.124;6.018;2023-03-02T01:52:55;58.08;;;24.45;;
47599;SDS011;33323;52.124;6.018;2023-03-02T01:55:24;62.45;;;22.73;;
47599;SDS011;33323;52.124;6.018;2023-03-02T01:57:54;60.15;;;24.83;;
47599;SDS011;33323;52.124;6.018;2023-03-02T02:00:27;57.60;;;23.52;;
47599;SDS011;33323;52.124;6.018;2023-03-02T02:03:02;61.80;;;23.73;;
47599;SDS011;33323;52.124;6.018;2023-03-02T02:05:37;61.65;;;23.55;;
47599;SDS011;33323;52.124;6.018;2023-03-02T02:08:07;49.63;;;22.45;;
47599;SDS011;33323;52.124;6.018;2023-03-02T02:10:35;53.78;;;21.80;;
47599;SDS011;33323;52.124;6.018;2023-03-02T02:13:04;55.03;;;24.33;;
47599;SDS011;33323;52.124;6.018;2023-03-02T02:15:36;58.80;;;24.30;;
47599;SDS011;33323;52.124;6.018;2023-03-02T02:18:04;49.83;;;21.35;;
47599;SDS011;33323;52.124;6.018;2023-03-02T02:20:44;56.53;;;22.27;;
47599;SDS011;33323;52.124;6.018;2023-03-02T02:26:05;47.78;;;21.02;;
47599;SDS011;33323;52.124;6.018;2023-03-02T02:28:54;49.92;;;22.60;;
47599;SDS011;33323;52.124;6.018;2023-03-02T02:34:01;45.15;;;19.33;;
47599;SDS011;33323;52.124;6.018;2023-03-02T02:36:50;57.13;;;22.42;;
47599;SDS011;33323;52.124;6.018;2023-03-02T02:39:26;51.75;;;21.70;;
47599;SDS011;33323;52.124;6.018;2023-03-02T02:41:59;54.33;;;22.73;;
47599;SDS011;33323;52.124;6.018;2023-03-02T02:44:31;47.95;;;20.73;;
47599;SDS011;33323;52.124;6.018;2023-03-02T02:46:59;48.35;;;20.55;;
47599;SDS011;33323;52.124;6.018;2023-03-02T02:49:28;51.05;;;19.83;;
47599;SDS011;33323;52.124;6.018;2023-03-02T02:52:04;52.95;;;20.05;;
47599;SDS011;33323;52.124;6.018;2023-03-02T02:54:32;56.08;;;23.08;;
47599;SDS011;33323;52.124;6.018;2023-03-02T02:57:04;54.83;;;21.38;;
47599;SDS011;33323;52.124;6.018;2023-03-02T02:59:32;62.05;;;22.48;;
47599;SDS011;33323;52.124;6.018;2023-03-02T03:02:06;59.53;;;23.77;;
47599;SDS011;33323;52.124;6.018;2023-03-02T03:04:39;63.10;;;23.60;;
47599;SDS011;33323;52.124;6.018;2023-03-02T03:07:09;59.08;;;23.13;;
47599;SDS011;33323;52.124;6.018;2023-03-02T03:09:42;58.35;;;23.50;;
47599;SDS011;33323;52.124;6.018;2023-03-02T03:12:15;61.47;;;24.45;;
47599;SDS011;33323;52.124;6.018;2023-03-02T03:14:47;55.35;;;22.40;;
47599;SDS011;33323;52.124;6.018;2023-03-02T03:17:15;60.05;;;23.15;;
47599;SDS011;33323;52.124;6.018;2023-03-02T03:19:49;53.75;;;22.38;;
47599;SDS011;33323;52.124;6.018;2023-03-02T03:22:17;63.10;;;24.55;;
47599;SDS011;33323;52.124;6.018;2023-03-02T03:24:46;61.85;;;24.38;;
47599;SDS011;33323;52.124;6.018;2023-03-02T03:27:15;56.55;;;22.75;;
47599;SDS011;33323;52.124;6.018;2023-03-02T03:29:44;57.15;;;23.65;;
47599;SDS011;33323;52.124;6.018;2023-03-02T03:32:18;53.63;;;20.48;;
47599;SDS011;33323;52.124;6.018;2023-03-02T03:34:48;50.17;;;21.08;;
47599;SDS011;33323;52.124;6.018;2023-03-02T03:37:23;55.03;;;22.27;;
47599;SDS011;33323;52.124;6.018;2023-03-02T03:39:50;54.85;;;22.05;;
47599;SDS011;33323;52.124;6.018;2023-03-02T03:42:18;57.58;;;22.05;;
47599;SDS011;33323;52.124;6.018;2023-03-02T03:44:46;54.42;;;21.73;;
47599;SDS011;33323;52.124;6.018;2023-03-02T03:47:13;58.50;;;22.67;;
47599;SDS011;33323;52.124;6.018;2023-03-02T03:49:40;58.15;;;21.60;;
47599;SDS011;33323;52.124;6.018;2023-03-02T03:52:08;56.63;;;23.90;;
47599;SDS011;33323;52.124;6.018;2023-03-02T03:54:36;57.33;;;22.92;;
47599;SDS011;33323;52.124;6.018;2023-03-02T03:57:03;61.72;;;22.75;;
47599;SDS011;33323;52.124;6.018;2023-03-02T03:59:31;57.05;;;21.40;;
47599;SDS011;33323;52.124;6.018;2023-03-02T04:02:01;61.83;;;24.58;;
47599;SDS011;33323;52.124;6.018;2023-03-02T04:04:35;64.43;;;23.80;;
47599;SDS011;33323;52.124;6.018;2023-03-02T04:07:07;55.17;;;21.80;;
47599;SDS011;33323;52.124;6.018;2023-03-02T04:09:35;61.03;;;23.92;;
47599;SDS011;33323;52.124;6.018;2023-03-02T04:12:05;67.10;;;24.63;;
47599;SDS011;33323;52.124;6.018;2023-03-02T04:14:34;62.83;;;23.83;;
47599;SDS011;33323;52.124;6.018;2023-03-02T04:17:02;64.55;;;24.48;;
47599;SDS011;33323;52.124;6.018;2023-03-02T04:19:32;63.25;;;25.17;;
47599;SDS011;33323;52.124;6.018;2023-03-02T04:22:01;66.25;;;24.50;;
47599;SDS011;33323;52.124;6.018;2023-03-02T04:24:31;62.50;;;23.90;;
47599;SDS011;33323;52.124;6.018;2023-03-02T04:27:01;62.88;;;23.00;;
47599;SDS011;33323;52.124;6.018;2023-03-02T04:29:30;56.75;;;22.67;;
47599;SDS011;33323;52.124;6.018;2023-03-02T04:31:59;66.30;;;24.10;;
47599;SDS011;33323;52.124;6.018;2023-03-02T04:34:28;49.67;;;21.88;;
47599;SDS011;33323;52.124;6.018;2023-03-02T04:36:55;60.42;;;23.25;;
47599;SDS011;33323;52.124;6.018;2023-03-02T04:39:22;61.50;;;23.35;;
47599;SDS011;33323;52.124;6.018;2023-03-02T04:41:51;63.97;;;22.92;;
47599;SDS011;33323;52.124;6.018;2023-03-02T04:44:19;68.05;;;24.38;;
47599;SDS011;33323;52.124;6.018;2023-03-02T04:46:47;68.13;;;23.60;;
47599;SDS011;33323;52.124;6.018;2023-03-02T04:49:15;69.88;;;23.13;;
47599;SDS011;33323;52.124;6.018;2023-03-02T04:51:45;62.55;;;23.50;;
47599;SDS011;33323;52.124;6.018;2023-03-02T04:54:18;80.82;;;26.60;;
47599;SDS011;33323;52.124;6.018;2023-03-02T04:56:51;64.90;;;25.08;;
47599;SDS011;33323;52.124;6.018;2023-03-02T04:59:21;66.15;;;24.67;;
47599;SDS011;33323;52.124;6.018;2023-03-02T05:01:55;65.32;;;24.40;;
47599;SDS011;33323;52.124;6.018;2023-03-02T05:04:24;66.57;;;24.13;;
47599;SDS011;33323;52.124;6.018;2023-03-02T05:06:53;70.40;;;24.30;;
47599;SDS011;33323;52.124;6.018;2023-03-02T05:09:20;71.00;;;25.65;;
47599;SDS011;33323;52.124;6.018;2023-03-02T05:11:57;61.50;;;24.70;;
47599;SDS011;33323;52.124;6.018;2023-03-02T05:14:25;69.88;;;24.65;;
47599;SDS011;33323;52.124;6.018;2023-03-02T05:16:53;62.42;;;25.88;;
47599;SDS011;33323;52.124;6.018;2023-03-02T05:19:20;61.97;;;23.75;;
47599;SDS011;33323;52.124;6.018;2023-03-02T05:21:48;72.55;;;24.05;;
47599;SDS011;33323;52.124;6.018;2023-03-02T05:24:15;61.92;;;23.10;;
47599;SDS011;33323;52.124;6.018;2023-03-02T05:26:42;67.20;;;24.52;;
47599;SDS011;33323;52.124;6.018;2023-03-02T05:29:09;68.43;;;24.67;;
47599;SDS011;33323;52.124;6.018;2023-03-02T05:31:40;59.78;;;23.33;;
47599;SDS011;33323;52.124;6.018;2023-03-02T05:34:10;64.97;;;24.40;;
47599;SDS011;33323;52.124;6.018;2023-03-02T05:36:39;63.45;;;24.77;;
47599;SDS011;33323;52.124;6.018;2023-03-02T05:39:07;69.60;;;23.80;;
47599;SDS011;33323;52.124;6.018;2023-03-02T05:41:34;64.55;;;25.25;;
47599;SDS011;33323;52.124;6.018;2023-03-02T05:44:02;65.38;;;24.60;;
47599;SDS011;33323;52.124;6.018;2023-03-02T05:46:31;69.47;;;22.33;;
47599;SDS011;33323;52.124;6.018;2023-03-02T05:48:58;68.68;;;23.95;;
47599;SDS011;33323;52.124;6.018;2023-03-02T05:51:26;62.45;;;24.20;;
47599;SDS011;33323;52.124;6.018;2023-03-02T05:53:53;71.45;;;23.42;;
47599;SDS011;33323;52.124;6.018;2023-03-02T05:56:20;68.22;;;24.15;;
47599;SDS011;33323;52.124;6.018;2023-03-02T05:58:47;63.00;;;24.23;;
47599;SDS011;33323;52.124;6.018;2023-03-02T06:01:14;69.97;;;25.02;;
47599;SDS011;33323;52.124;6.018;2023-03-02T06:03:42;76.30;;;27.52;;
47599;SDS011;33323;52.124;6.018;2023-03-02T06:06:09;62.97;;;22.38;;
47599;SDS011;33323;52.124;6.018;2023-03-02T06:08:40;70.10;;;22.67;;
47599;SDS011;33323;52.124;6.018;2023-03-02T06:11:08;64.18;;;24.83;;
47599;SDS011;33323;52.124;6.018;2023-03-02T06:13:37;64.43;;;24.30;;
47599;SDS011;33323;52.124;6.018;2023-03-02T06:16:05;72.82;;;25.67;;
47599;SDS011;33323;52.124;6.018;2023-03-02T06:18:34;62.15;;;25.10;;
47599;SDS011;33323;52.124;6.018;2023-03-02T06:21:03;66.43;;;23.10;;
47599;SDS011;33323;52.124;6.018;2023-03-02T06:23:30;60.45;;;22.33;;
47599;SDS011;33323;52.124;6.018;2023-03-02T06:25:57;61.90;;;24.52;;
47599;SDS011;33323;52.124;6.018;2023-03-02T06:28:25;58.28;;;21.10;;
47599;SDS011;33323;52.124;6.018;2023-03-02T06:30:52;61.03;;;22.90;;
47599;SDS011;33323;52.124;6.018;2023-03-02T06:33:19;62.03;;;23.92;;
47599;SDS011;33323;52.124;6.018;2023-03-02T06:35:47;59.08;;;20.98;;
47599;SDS011;33323;52.124;6.018;2023-03-02T06:38:16;66.55;;;25.27;;
47599;SDS011;33323;52.124;6.018;2023-03-02T06:40:43;62.45;;;22.80;;
47599;SDS011;33323;52.124;6.018;2023-03-02T06:43:10;59.70;;;21.17;;
47599;SDS011;33323;52.124;6.018;2023-03-02T06:45:37;55.97;;;21.95;;
47599;SDS011;33323;52.124;6.018;2023-03-02T06:48:05;54.28;;;20.17;;
47599;SDS011;33323;52.124;6.018;2023-03-02T06:50:33;51.85;;;20.75;;
47599;SDS011;33323;52.124;6.018;2023-03-02T06:53:00;50.17;;;19.80;;
47599;SDS011;33323;52.124;6.018;2023-03-02T06:55:28;56.70;;;20.95;;
47599;SDS011;33323;52.124;6.018;2023-03-02T06:57:55;62.92;;;21.70;;
47599;SDS011;33323;52.124;6.018;2023-03-02T07:00:22;59.58;;;22.08;;
47599;SDS011;33323;52.124;6.018;2023-03-02T07:02:54;65.43;;;22.35;;
47599;SDS011;33323;52.124;6.018;2023-03-02T07:05:22;63.50;;;24.17;;
47599;SDS011;33323;52.124;6.018;2023-03-02T07:07:50;61.67;;;21.10;;
47599;SDS011;33323;52.124;6.018;2023-03-02T07:10:17;67.20;;;22.10;;
47599;SDS011;33323;52.124;6.018;2023-03-02T07:12:45;63.08;;;21.90;;
47599;SDS011;33323;52.124;6.018;2023-03-02T07:15:12;66.10;;;23.67;;
47599;SDS011;33323;52.124;6.018;2023-03-02T07:17:40;65.72;;;23.02;;
47599;SDS011;33323;52.124;6.018;2023-03-02T07:20:14;54.83;;;21.25;;
47599;SDS011;33323;52.124;6.018;2023-03-02T07:22:43;56.10;;;20.90;;
47599;SDS011;33323;52.124;6.018;2023-03-02T07:25:10;68.65;;;24.17;;
47599;SDS011;33323;52.124;6.018;2023-03-02T07:27:39;65.28;;;24.38;;
47599;SDS011;33323;52.124;6.018;2023-03-02T07:30:07;63.30;;;22.65;;
47599;SDS011;33323;52.124;6.018;2023-03-02T07:32:38;62.85;;;24.27;;
47599;SDS011;33323;52.124;6.018;2023-03-02T07:35:06;67.90;;;24.70;;
47599;SDS011;33323;52.124;6.018;2023-03-02T07:37:34;60.40;;;22.58;;
47599;SDS011;33323;52.124;6.018;2023-03-02T07:40:01;68.57;;;23.38;;
47599;SDS011;33323;52.124;6.018;2023-03-02T07:42:30;76.18;;;25.23;;
47599;SDS011;33323;52.124;6.018;2023-03-02T07:45:00;64.75;;;24.20;;
47599;SDS011;33323;52.124;6.018;2023-03-02T07:47:30;64.10;;;22.45;;
47599;SDS011;33323;52.124;6.018;2023-03-02T07:49:58;67.15;;;24.38;;
47599;SDS011;33323;52.124;6.018;2023-03-02T07:52:27;74.68;;;24.50;;
47599;SDS011;33323;52.124;6.018;2023-03-02T07:54:56;63.55;;;23.35;;
47599;SDS011;33323;52.124;6.018;2023-03-02T07:57:25;65.05;;;21.77;;
47599;SDS011;33323;52.124;6.018;2023-03-02T07:59:53;68.50;;;23.83;;
47599;SDS011;33323;52.124;6.018;2023-03-02T08:02:20;67.35;;;23.10;;
47599;SDS011;33323;52.124;6.018;2023-03-02T08:04:47;72.47;;;23.52;;
47599;SDS011;33323;52.124;6.018;2023-03-02T08:07:14;64.45;;;22.80;;
47599;SDS011;33323;52.124;6.018;2023-03-02T08:09:42;69.13;;;23.02;;
47599;SDS011;33323;52.124;6.018;2023-03-02T08:12:09;62.00;;;23.15;;
47599;SDS011;33323;52.124;6.018;2023-03-02T08:14:36;68.80;;;24.70;;
47599;SDS011;33323;52.124;6.018;2023-03-02T08:17:04;63.70;;;23.33;;
47599;SDS011;33323;52.124;6.018;2023-03-02T08:19:34;69.05;;;23.92;;
47599;SDS011;33323;52.124;6.018;2023-03-02T08:22:01;62.45;;;23.17;;
47599;SDS011;33323;52.124;6.018;2023-03-02T08:24:28;68.47;;;24.08;;
47599;SDS011;33323;52.124;6.018;2023-03-02T08:26:58;65.53;;;21.10;;
47599;SDS011;33323;52.124;6.018;2023-03-02T08:29:27;66.85;;;22.33;;
47599;SDS011;33323;52.124;6.018;2023-03-02T08:31:55;64.35;;;21.27;;
47599;SDS011;33323;52.124;6.018;2023-03-02T08:34:24;66.72;;;22.48;;
47599;SDS011;33323;52.124;6.018;2023-03-02T08:36:52;70.22;;;23.95;;
47599;SDS011;33323;52.124;6.018;2023-03-02T08:39:22;70.20;;;23.40;;
47599;SDS011;33323;52.124;6.018;2023-03-02T08:41:50;63.67;;;21.73;;
47599;SDS011;33323;52.124;6.018;2023-03-02T08:44:18;66.78;;;22.08;;
47599;SDS011;33323;52.124;6.018;2023-03-02T08:46:49;59.42;;;21.88;;
47599;SDS011;33323;52.124;6.018;2023-03-02T08:49:17;64.53;;;20.67;;
47599;SDS011;33323;52.124;6.018;2023-03-02T08:51:45;58.13;;;19.25;;
47599;SDS011;33323;52.124;6.018;2023-03-02T08:54:19;53.88;;;20.15;;
47599;SDS011;33323;52.124;6.018;2023-03-02T08:56:46;52.13;;;20.92;;
47599;SDS011;33323;52.124;6.018;2023-03-02T08:59:14;53.17;;;19.77;;
47599;SDS011;33323;52.124;6.018;2023-03-02T09:01:42;57.72;;;20.45;;
47599;SDS011;33323;52.124;6.018;2023-03-02T09:04:10;47.47;;;19.67;;
47599;SDS011;33323;52.124;6.018;2023-03-02T09:06:39;54.25;;;19.25;;
47599;SDS011;33323;52.124;6.018;2023-03-02T09:09:09;53.85;;;17.90;;
47599;SDS011;33323;52.124;6.018;2023-03-02T09:11:39;52.55;;;18.63;;
47599;SDS011;33323;52.124;6.018;2023-03-02T09:14:08;53.88;;;18.55;;
47599;SDS011;33323;52.124;6.018;2023-03-02T09:16:35;43.50;;;17.50;;
47599;SDS011;33323;52.124;6.018;2023-03-02T09:19:04;53.17;;;19.70;;
47599;SDS011;33323;52.124;6.018;2023-03-02T09:21:34;48.60;;;19.58;;
47599;SDS011;33323;52.124;6.018;2023-03-02T09:24:02;53.35;;;21.00;;
47599;SDS011;33323;52.124;6.018;2023-03-02T09:26:29;59.88;;;21.08;;
47599;SDS011;33323;52.124;6.018;2023-03-02T09:28:56;51.97;;;19.33;;
47599;SDS011;33323;52.124;6.018;2023-03-02T09:31:23;45.70;;;18.48;;
47599;SDS011;33323;52.124;6.018;2023-03-02T09:33:50;47.45;;;18.77;;
47599;SDS011;33323;52.124;6.018;2023-03-02T09:36:23;45.25;;;16.27;;
47599;SDS011;33323;52.124;6.018;2023-03-02T09:38:51;47.60;;;18.80;;
47599;SDS011;33323;52.124;6.018;2023-03-02T09:43:56;35.97;;;15.95;;
47599;SDS011;33323;52.124;6.018;2023-03-02T09:52:36;34.15;;;16.80;;
47599;SDS011;33323;52.124;6.018;2023-03-02T09:55:15;37.22;;;15.45;;
47599;SDS011;33323;52.124;6.018;2023-03-02T09:57:47;34.70;;;14.65;;
47599;SDS011;33323;52.124;6.018;2023-03-02T10:00:16;41.05;;;16.92;;
47599;SDS011;33323;52.124;6.018;2023-03-02T10:03:00;41.50;;;16.58;;
47599;SDS011;33323;52.124;6.018;2023-03-02T10:08:21;38.78;;;16.65;;
47599;SDS011;33323;52.124;6.018;2023-03-02T10:14:02;30.95;;;15.25;;
47599;SDS011;33323;52.124;6.018;2023-03-02T10:19:19;31.08;;;14.52;;
47599;SDS011;33323;52.124;6.018;2023-03-02T10:22:10;32.42;;;13.75;;
47599;SDS011;33323;52.124;6.018;2023-03-02T10:27:39;31.05;;;16.10;;
47599;SDS011;33323;52.124;6.018;2023-03-02T10:33:00;32.17;;;14.95;;
47599;SDS011;33323;52.124;6.018;2023-03-02T10:35:35;33.45;;;15.95;;
47599;SDS011;33323;52.124;6.018;2023-03-02T10:38:14;25.77;;;14.02;;
47599;SDS011;33323;52.124;6.018;2023-03-02T10:40:57;25.13;;;13.48;;
47599;SDS011;33323;52.124;6.018;2023-03-02T10:43:35;31.48;;;14.13;;
47599;SDS011;33323;52.124;6.018;2023-03-02T10:46:13;24.23;;;12.38;;
47599;SDS011;33323;52.124;6.018;2023-03-02T10:51:23;29.02;;;12.60;;
47599;SDS011;33323;52.124;6.018;2023-03-02T10:56:37;25.50;;;13.15;;
47599;SDS011;33323;52.124;6.018;2023-03-02T10:59:30;24.15;;;12.35;;
47599;SDS011;33323;52.124;6.018;2023-03-02T11:02:13;25.58;;;12.93;;
47599;SDS011;33323;52.124;6.018;2023-03-02T11:07:27;21.25;;;10.05;;
47599;SDS011;33323;52.124;6.018;2023-03-02T11:10:06;23.45;;;11.40;;
47599;SDS011;33323;52.124;6.018;2023-03-02T11:12:46;23.23;;;11.13;;
47599;SDS011;33323;52.124;6.018;2023-03-02T11:20:38;26.08;;;11.38;;
47599;SDS011;33323;52.124;6.018;2023-03-02T11:23:21;22.55;;;12.45;;
47599;SDS011;33323;52.124;6.018;2023-03-02T11:26:28;25.45;;;10.93;;
47599;SDS011;33323;52.124;6.018;2023-03-02T11:31:45;20.35;;;10.40;;
47599;SDS011;33323;52.124;6.018;2023-03-02T11:34:29;22.10;;;11.68;;
47599;SDS011;33323;52.124;6.018;2023-03-02T11:37:33;17.92;;;10.18;;
47599;SDS011;33323;52.124;6.018;2023-03-02T11:40:21;16.58;;;10.15;;
47599;SDS011;33323;52.124;6.018;2023-03-02T11:42:54;21.40;;;10.57;;
47599;SDS011;33323;52.124;6.018;2023-03-02T11:45:27;21.05;;;10.63;;
47599;SDS011;33323;52.124;6.018;2023-03-02T11:48:01;21.25;;;10.95;;
47599;SDS011;33323;52.124;6.018;2023-03-02T11:50:31;18.15;;;10.32;;
47599;SDS011;33323;52.124;6.018;2023-03-02T11:53:16;19.50;;;9.98;;
47599;SDS011;33323;52.124;6.018;2023-03-02T11:55:46;15.93;;;8.93;;
47599;SDS011;33323;52.124;6.018;2023-03-02T11:58:17;19.30;;;10.60;;
47599;SDS011;33323;52.124;6.018;2023-03-02T12:00:47;20.00;;;10.15;;
47599;SDS011;33323;52.124;6.018;2023-03-02T12:05:43;20.33;;;10.60;;
47599;SDS011;33323;52.124;6.018;2023-03-02T12:08:41;19.95;;;10.18;;
47599;SDS011;33323;52.124;6.018;2023-03-02T12:13:45;21.30;;;11.30;;
47599;SDS011;33323;52.124;6.018;2023-03-02T12:21:55;19.85;;;10.07;;
47599;SDS011;33323;52.124;6.018;2023-03-02T12:24:31;20.73;;;10.05;;
47599;SDS011;33323;52.124;6.018;2023-03-02T12:27:45;16.27;;;7.88;;
47599;SDS011;33323;52.124;6.018;2023-03-02T12:30:07;16.80;;;9.07;;
47599;SDS011;33323;52.124;6.018;2023-03-02T12:32:35;18.05;;;9.45;;
47599;SDS011;33323;52.124;6.018;2023-03-02T12:44:24;15.40;;;8.02;;
47599;SDS011;33323;52.124;6.018;2023-03-02T12:47:11;16.83;;;8.95;;
47599;SDS011;33323;52.124;6.018;2023-03-02T12:49:48;17.52;;;7.65;;
47599;SDS011;33323;52.124;6.018;2023-03-02T12:52:33;17.83;;;8.23;;
47599;SDS011;33323;52.124;6.018;2023-03-02T12:55:13;16.73;;;8.90;;
47599;SDS011;33323;52.124;6.018;2023-03-02T12:57:46;17.63;;;7.10;;
47599;SDS011;33323;52.124;6.018;2023-03-02T13:00:25;14.20;;;6.78;;
47599;SDS011;33323;52.124;6.018;2023-03-02T13:02:56;14.73;;;7.47;;
47599;SDS011;33323;52.124;6.018;2023-03-02T13:05:28;14.02;;;7.78;;
47599;SDS011;33323;52.124;6.018;2023-03-02T13:07:59;14.38;;;8.48;;
47599;SDS011;33323;52.124;6.018;2023-03-02T13:10:47;12.27;;;6.95;;
47599;SDS011;33323;52.124;6.018;2023-03-02T13:13:18;15.50;;;7.57;;
47599;SDS011;33323;52.124;6.018;2023-03-02T13:15:51;14.85;;;7.05;;
47599;SDS011;33323;52.124;6.018;2023-03-02T13:18:31;14.48;;;6.72;;
47599;SDS011;33323;52.124;6.018;2023-03-02T13:21:04;11.50;;;5.75;;
47599;SDS011;33323;52.124;6.018;2023-03-02T13:23:32;12.45;;;7.43;;
47599;SDS011;33323;52.124;6.018;2023-03-02T13:26:01;15.07;;;6.40;;
47599;SDS011;33323;52.124;6.018;2023-03-02T13:28:35;12.40;;;7.18;;
47599;SDS011;33323;52.124;6.018;2023-03-02T13:31:25;14.13;;;7.50;;
47599;SDS011;33323;52.124;6.018;2023-03-02T13:33:52;17.17;;;8.27;;
47599;SDS011;33323;52.124;6.018;2023-03-02T13:36:22;15.45;;;8.45;;
47599;SDS011;33323;52.124;6.018;2023-03-02T13:38:56;13.57;;;7.03;;
47599;SDS011;33323;52.124;6.018;2023-03-02T13:41:28;14.10;;;7.13;;
47599;SDS011;33323;52.124;6.018;2023-03-02T13:43:58;14.25;;;7.93;;
47599;SDS011;33323;52.124;6.018;2023-03-02T13:46:45;13.80;;;7.38;;
47599;SDS011;33323;52.124;6.018;2023-03-02T13:49:13;8.55;;;5.63;;
47599;SDS011;33323;52.124;6.018;2023-03-02T13:51:56;11.48;;;6.75;;
47599;SDS011;33323;52.124;6.018;2023-03-02T13:54:42;13.35;;;7.38;;
47599;SDS011;33323;52.124;6.018;2023-03-02T13:57:14;11.90;;;6.43;;
47599;SDS011;33323;52.124;6.018;2023-03-02T13:59:48;10.07;;;6.38;;
47599;SDS011;33323;52.124;6.018;2023-03-02T14:02:22;12.02;;;6.70;;
47599;SDS011;33323;52.124;6.018;2023-03-02T14:04:53;12.02;;;6.97;;
47599;SDS011;33323;52.124;6.018;2023-03-02T14:07:21;11.60;;;5.93;;
47599;SDS011;33323;52.124;6.018;2023-03-02T14:09:48;14.55;;;7.30;;
47599;SDS011;33323;52.124;6.018;2023-03-02T14:12:20;15.68;;;7.90;;
47599;SDS011;33323;52.124;6.018;2023-03-02T14:14:53;16.75;;;9.48;;
47599;SDS011;33323;52.124;6.018;2023-03-02T14:17:24;15.55;;;7.65;;
47599;SDS011;33323;52.124;6.018;2023-03-02T14:19:52;15.13;;;7.13;;
47599;SDS011;33323;52.124;6.018;2023-03-02T14:22:21;15.75;;;7.95;;
47599;SDS011;33323;52.124;6.018;2023-03-02T14:24:51;13.05;;;6.78;;
47599;SDS011;33323;52.124;6.018;2023-03-02T14:27:19;14.48;;;7.75;;
47599;SDS011;33323;52.124;6.018;2023-03-02T14:29:49;16.52;;;8.45;;
47599;SDS011;33323;52.124;6.018;2023-03-02T14:32:16;17.55;;;9.20;;
47599;SDS011;33323;52.124;6.018;2023-03-02T14:34:43;14.38;;;7.47;;
47599;SDS011;33323;52.124;6.018;2023-03-02T14:37:12;16.13;;;8.27;;
47599;SDS011;33323;52.124;6.018;2023-03-02T14:39:50;15.85;;;9.20;;
47599;SDS011;33323;52.124;6.018;2023-03-02T14:42:20;15.52;;;8.68;;
47599;SDS011;33323;52.124;6.018;2023-03-02T14:44:48;13.05;;;7.68;;
47599;SDS011;33323;52.124;6.018;2023-03-02T14:47:16;13.93;;;7.57;;
47599;SDS011;33323;52.124;6.018;2023-03-02T14:49:45;15.68;;;8.18;;
47599;SDS011;33323;52.124;6.018;2023-03-02T14:52:22;14.07;;;8.52;;
47599;SDS011;33323;52.124;6.018;2023-03-02T14:55:17;12.20;;;6.53;;
47599;SDS011;33323;52.124;6.018;2023-03-02T14:57:49;11.93;;;7.03;;
47599;SDS011;33323;52.124;6.018;2023-03-02T15:00:31;18.80;;;8.48;;
47599;SDS011;33323;52.124;6.018;2023-03-02T15:02:58;13.48;;;7.80;;
47599;SDS011;33323;52.124;6.018;2023-03-02T15:05:25;17.58;;;8.25;;
47599;SDS011;33323;52.124;6.018;2023-03-02T15:07:53;13.25;;;7.72;;
47599;SDS011;33323;52.124;6.018;2023-03-02T15:10:24;14.57;;;7.85;;
47599;SDS011;33323;52.124;6.018;2023-03-02T15:12:51;13.45;;;7.78;;
47599;SDS011;33323;52.124;6.018;2023-03-02T15:15:18;15.18;;;8.85;;
47599;SDS011;33323;52.124;6.018;2023-03-02T15:17:45;14.30;;;7.88;;
47599;SDS011;33323;52.124;6.018;2023-03-02T15:20:13;14.80;;;8.35;;
47599;SDS011;33323;52.124;6.018;2023-03-02T15:22:41;15.13;;;8.18;;
47599;SDS011;33323;52.124;6.018;2023-03-02T15:25:09;14.95;;;7.43;;
47599;SDS011;33323;52.124;6.018;2023-03-02T15:27:36;13.45;;;8.27;;
47599;SDS011;33323;52.124;6.018;2023-03-02T15:30:03;12.95;;;7.85;;
47599;SDS011;33323;52.124;6.018;2023-03-02T15:32:31;17.52;;;8.02;;
47599;SDS011;33323;52.124;6.018;2023-03-02T15:34:58;14.13;;;7.38;;
47599;SDS011;33323;52.124;6.018;2023-03-02T15:37:26;14.02;;;8.07;;
47599;SDS011;33323;52.124;6.018;2023-03-02T15:39:54;14.55;;;8.30;;
47599;SDS011;33323;52.124;6.018;2023-03-02T15:42:22;13.30;;;7.20;;
47599;SDS011;33323;52.124;6.018;2023-03-02T15:44:49;18.42;;;8.50;;
47599;SDS011;33323;52.124;6.018;2023-03-02T15:47:16;14.13;;;7.38;;
47599;SDS011;33323;52.124;6.018;2023-03-02T15:49:43;13.48;;;8.05;;
47599;SDS011;33323;52.124;6.018;2023-03-02T15:52:10;13.40;;;7.43;;